Aérodrome :







RETROUVEZ-NOUS SUR...

 
LOGIN :

S'inscrire | Disclaimer

   EN    FR    IT 

 









Légende :    VFR   VFR Marginal   IFR   IFR Intensif   IFR Très Intensif
Visi : 
Plafond : 
>= 8 km
>= 3000ft
5 à 8 km
1000 à 3000 ft
1500m à 5 km
500 à 1000 ft
800 à 1500m
200 à 500 ft
< 800m
< 200 ft
Symboles :   Orages  Brouillard  Fortes neiges  Fortes précipitations  Vent > 20 kt






- Altitude de l'aérodrome : 827 ft


KDDH - William H. Morse State

DERNIER METAR :
  • 150236Z AUTO 28008G22KT 4SM -RA BR BKN008 BKN012 OVC031 07/04 A2915 RMK AO2 P0002 T00670044

METARs EXPIRÉS :
  • 150212Z AUTO 24010G17KT 5SM -RA SCT007 BKN013 OVC030 08/06 A2913 RMK AO2 PRESRR P0002 T00830056
  • 150157Z AUTO VRB05G14KT 3SM -RA BR BKN007 BKN013 OVC019 09/07 A2912 RMK AO2 P0001 T00940072
  • 150154Z AUTO 25008G14KT 220V290 2 1/2SM -RA BR FEW007 BKN012 OVC019 09/07 A2911 RMK AO2 SLP859 P0002 T00940072
  • 150141Z AUTO 30008KT 4SM -RA BR SCT009 BKN016 OVC020 09/07 A2910 RMK AO2 P0000 T00940072
  • 150117Z AUTO 26010G19KT 10SM -RA BKN017 OVC030 11/08 A2909 RMK AO2 P0000 T01110078
  • 150054Z AUTO 22007G20KT 190V250 10SM -RA FEW025 OVC033 12/08 A2907 RMK AO2 SLP845 P0000 T01220078
  • 142354Z AUTO 18010KT 8SM -RA SCT017 OVC023 12/10 A2906 RMK AO2 SLP840 P0001 60001 T01220100 10139 20106 55023

TAF N/A



MET'MAP, la Météo Aéronautique d'un coup d'oeil ! - Copyright ORBIFLY Décembre 2007 - Disclaimer

ORBIFLY MET'MAP TEAM :

Programmation & Développement : Alexandra Zaïnal
Sur une idée originale de : Baudouin d'Aumeries
Assistance à la programmation : Marc-Olivier Méhu
Soutien technique & logistique : Manuel Goepfert

Contact : metmap@orbifly.com




SOURCES & CREDITS :

   NOAA